Time;durP1;ratioP1;P1;durP2;ratioP2;P2;SDS_P1;SDS_P2;PMS_P1;PMS_P2;Temp;Humidity;BMP_temperature;BMP_pressure;BME280_temperature;BME280_humidity;BME280_pressure;Samples;Min_cycle;Max_cycle;Signal;HPM_P1;HPM_P2
2023/01/27 00:01:03;;;;;;;;;5.50;5.25;;;;;-146.44;100.00;58906.56;5073195;27;45550;-59
2023/01/27 00:03:28;;;;;;;;;6.00;5.00;;;;;-146.44;100.00;58906.56;5073814;27;45406;-59
2023/01/27 00:05:53;;;;;;;;;4.50;4.50;;;;;-146.44;100.00;58906.56;5073395;27;45882;-59
2023/01/27 00:08:19;;;;;;;;;6.00;5.00;;;;;-146.44;100.00;58906.56;5073603;27;45389;-59
2023/01/27 00:10:45;;;;;;;;;3.25;3.25;;;;;-146.44;100.00;58906.56;5073942;27;45499;-59
2023/01/27 00:13:27;;;;;;;;;6.75;5.50;;;;;-146.44;100.00;58906.56;5073786;27;45501;-58
2023/01/27 00:15:53;;;;;;;;;6.00;6.00;;;;;-146.44;100.00;58906.56;5077352;27;45541;-59
2023/01/27 00:18:22;;;;;;;;;6.50;6.50;;;;;-146.44;100.00;58906.56;5076508;27;45423;-60
2023/01/27 00:26:18;;;;;;;;;7.50;7.50;;;;;-146.44;100.00;58906.56;5077229;27;45484;-59
2023/01/27 00:28:46;;;;;;;;;11.00;11.00;;;;;-146.44;100.00;58906.56;5075587;27;45668;-60
2023/01/27 00:34:07;;;;;;;;;14.75;12.25;;;;;-146.44;100.00;58906.56;5076810;27;45481;-59
2023/01/27 00:36:35;;;;;;;;;6.75;6.75;;;;;-146.44;100.00;58906.56;5076854;27;45482;-59
2023/01/27 00:39:03;;;;;;;;;9.00;7.00;;;;;-146.44;100.00;58906.56;5076930;27;45629;-59
2023/01/27 00:41:32;;;;;;;;;7.50;6.50;;;;;-146.44;100.00;58906.56;5076758;27;45420;-60
2023/01/27 00:43:58;;;;;;;;;7.50;5.75;;;;;-146.44;100.00;58906.56;5076904;27;45479;-59
2023/01/27 00:46:24;;;;;;;;;8.25;5.25;;;;;-146.44;100.00;58906.56;5076721;27;45599;-59
2023/01/27 00:48:51;;;;;;;;;7.00;5.75;;;;;-146.44;100.00;58906.56;5075655;28;45486;-59
2023/01/27 00:51:17;;;;;;;;;6.25;6.00;;;;;-146.44;100.00;58906.56;5076514;28;45638;-59
2023/01/27 00:53:44;;;;;;;;;6.00;3.00;;;;;-146.44;100.00;58906.56;5076536;27;45719;-60
2023/01/27 00:56:10;;;;;;;;;4.00;2.50;;;;;-146.44;100.00;58906.56;5076662;27;45495;-59
2023/01/27 00:58:36;;;;;;;;;4.50;4.50;;;;;-146.44;100.00;58906.56;5076809;27;45505;-59
2023/01/27 01:01:04;;;;;;;;;4.00;4.00;;;;;-146.44;100.00;58906.56;5076327;27;46381;-60
2023/01/27 01:03:32;;;;;;;;;7.00;5.75;;;;;-146.44;100.00;58906.56;5076321;27;45429;-59
2023/01/27 01:05:59;;;;;;;;;3.00;3.00;;;;;-146.44;100.00;58906.56;5076450;27;45527;-59
2023/01/27 01:08:26;;;;;;;;;5.50;5.50;;;;;-146.44;100.00;58906.56;5076266;27;45454;-60
2023/01/27 01:10:52;;;;;;;;;3.00;3.00;;;;;-146.44;100.00;58906.56;5076431;27;45509;-59
2023/01/27 01:13:20;;;;;;;;;2.00;2.00;;;;;-146.44;100.00;58906.56;5076280;27;45530;-60
2023/01/27 01:15:46;;;;;;;;;5.75;4.50;;;;;-146.44;100.00;58906.56;5076523;28;45489;-59
2023/01/27 01:18:11;;;;;;;;;6.00;5.00;;;;;-146.44;100.00;58906.56;5075526;27;45496;-58
2023/01/27 01:20:38;;;;;;;;;4.50;4.50;;;;;-146.44;100.00;58906.56;5076144;27;50539;-60
2023/01/27 01:23:05;;;;;;;;;2.00;2.00;;;;;-146.44;100.00;58906.56;5076369;27;45533;-59
2023/01/27 01:25:30;;;;;;;;;5.00;4.50;;;;;-146.44;100.00;58906.56;5075437;27;45531;-59
2023/01/27 01:27:57;;;;;;;;;3.50;3.50;;;;;-146.44;100.00;58906.56;5076449;27;45750;-60
2023/01/27 01:30:25;;;;;;;;;5.00;5.00;;;;;-146.44;100.00;58906.56;5076017;27;46216;-59
2023/01/27 01:32:51;;;;;;;;;5.00;3.00;;;;;-146.44;100.00;58906.56;5062193;28;45510;-60
2023/01/27 01:35:19;;;;;;;;;5.00;5.00;;;;;-146.44;100.00;58906.56;5076188;27;45492;-60
2023/01/27 01:37:44;;;;;;;;;2.75;2.75;;;;;-146.44;100.00;58906.56;5076332;27;45557;-60
2023/01/27 01:40:13;;;;;;;;;5.50;5.50;;;;;-146.44;100.00;58906.56;5075867;27;46199;-59
2023/01/27 01:43:09;;;;;;;;;5.25;3.00;;;;;-146.44;100.00;58906.56;5075785;27;45553;-59
2023/01/27 01:45:35;;;;;;;;;6.00;3.50;;;;;-146.44;100.00;58906.56;5075564;27;45549;-59
2023/01/27 01:48:09;;;;;;;;;4.50;2.75;;;;;-146.44;100.00;58906.56;5074335;28;45606;-58
2023/01/27 01:50:36;;;;;;;;;5.00;5.00;;;;;-146.44;100.00;58906.56;5075629;27;45465;-59
2023/01/27 01:53:05;;;;;;;;;3.50;3.00;;;;;-146.44;100.00;58906.56;5068041;27;45572;-60
2023/01/27 01:55:33;;;;;;;;;6.50;1.75;;;;;-146.44;100.00;58906.56;5068798;27;45505;-60
2023/01/27 01:57:59;;;;;;;;;2.00;1.25;;;;;-146.44;100.00;58906.56;5061536;28;45505;-59
2023/01/27 02:00:25;;;;;;;;;4.50;2.50;;;;;-146.44;100.00;58906.56;5069263;28;45561;-60
2023/01/27 02:02:53;;;;;;;;;3.00;3.00;;;;;-146.44;100.00;58906.56;5074436;27;45517;-60
2023/01/27 02:05:26;;;;;;;;;5.00;5.00;;;;;-146.44;100.00;58906.56;5071809;27;45568;-59
2023/01/27 02:08:33;;;;;;;;;2.25;2.00;;;;;-146.44;100.00;58906.56;5065579;27;45371;-60
2023/01/27 02:10:58;;;;;;;;;3.00;3.00;;;;;-146.44;100.00;58906.56;5049054;28;45890;-58
2023/01/27 02:13:23;;;;;;;;;2.75;2.00;;;;;-146.44;100.00;58906.56;5059066;28;52845;-58
2023/01/27 02:15:52;;;;;;;;;2.75;2.75;;;;;-146.44;100.00;58906.56;5075236;27;45543;-60
2023/01/27 02:18:18;;;;;;;;;3.00;3.00;;;;;-146.44;100.00;58906.56;5071747;27;45499;-59
2023/01/27 02:20:46;;;;;;;;;2.25;2.25;;;;;-146.44;100.00;58906.56;5057008;27;45534;-59
2023/01/27 02:23:27;;;;;;;;;6.50;2.00;;;;;-146.44;100.00;58906.56;5064234;27;45547;-59
2023/01/27 02:26:18;;;;;;;;;3.00;3.00;;;;;-146.44;100.00;58906.56;5075195;27;45520;-59
2023/01/27 02:28:43;;;;;;;;;2.00;2.00;;;;;-146.44;100.00;58906.56;5063779;27;45495;-59
2023/01/27 02:31:09;;;;;;;;;8.00;7.50;;;;;-146.44;100.00;58906.56;5072066;27;45583;-60
2023/01/27 02:33:34;;;;;;;;;5.50;3.00;;;;;-146.44;100.00;58906.56;5056218;28;45565;-59
2023/01/27 02:36:05;;;;;;;;;3.00;2.00;;;;;-146.44;100.00;58906.56;5073814;28;45541;-59
2023/01/27 02:39:02;;;;;;;;;4.25;4.00;;;;;-146.44;100.00;58906.56;5074538;27;45589;-59
2023/01/27 02:41:41;;;;;;;;;5.50;5.50;;;;;-146.44;100.00;58906.56;5055367;28;45474;-59
2023/01/27 02:44:08;;;;;;;;;2.00;2.00;;;;;-146.44;100.00;58906.56;5060468;27;45691;-59
2023/01/27 02:46:33;;;;;;;;;3.00;3.00;;;;;-146.44;100.00;58906.56;5073059;28;45471;-59
2023/01/27 02:48:58;;;;;;;;;7.00;5.50;;;;;-146.44;100.00;58906.56;5063499;28;45624;-59
2023/01/27 02:51:24;;;;;;;;;6.75;2.50;;;;;-146.44;100.00;58906.56;5074765;27;45489;-59
2023/01/27 02:53:49;;;;;;;;;5.00;5.00;;;;;-146.44;100.00;58906.56;5072004;28;45668;-59
2023/01/27 02:56:15;;;;;;;;;2.75;2.75;;;;;-146.44;100.00;58906.56;5066110;27;45722;-59
2023/01/27 02:58:40;;;;;;;;;2.25;2.25;;;;;-146.44;100.00;58906.56;5070790;27;45709;-59
2023/01/27 03:01:07;;;;;;;;;3.25;2.75;;;;;-146.44;100.00;58906.56;5074612;27;46005;-59
2023/01/27 03:03:32;;;;;;;;;3.75;2.75;;;;;-146.44;100.00;58906.56;5074646;27;45414;-59
2023/01/27 03:05:57;;;;;;;;;3.50;2.00;;;;;-146.44;100.00;58906.56;5065846;27;45504;-58
2023/01/27 03:08:23;;;;;;;;;2.00;2.00;;;;;-146.44;100.00;58906.56;5074762;27;45603;-59
2023/01/27 03:10:50;;;;;;;;;2.00;2.00;;;;;-146.44;100.00;58906.56;5072965;27;47276;-58
2023/01/27 03:13:15;;;;;;;;;5.00;5.00;;;;;-146.44;100.00;58906.56;5073939;27;45492;-59
2023/01/27 03:18:24;;;;;;;;;4.25;2.00;;;;;-146.44;100.00;58906.56;5062290;27;45491;-59
2023/01/27 03:20:49;;;;;;;;;5.25;5.25;;;;;-146.44;100.00;58906.56;5074120;27;45492;-59
2023/01/27 03:23:16;;;;;;;;;2.75;2.25;;;;;-146.44;100.00;58906.56;5074261;27;45524;-59
2023/01/27 03:25:46;;;;;;;;;2.50;2.50;;;;;-146.44;100.00;58906.56;5074342;27;45421;-59
2023/01/27 03:28:13;;;;;;;;;3.50;2.75;;;;;-146.44;100.00;58906.56;5072881;27;45510;-59
2023/01/27 03:30:40;;;;;;;;;1.50;1.50;;;;;-146.44;100.00;58906.56;5073850;27;46210;-59
2023/01/27 03:33:06;;;;;;;;;6.25;2.50;;;;;-146.44;100.00;58906.56;5072462;27;45477;-59
2023/01/27 03:35:37;;;;;;;;;5.25;2.75;;;;;-146.44;100.00;58906.56;5074187;27;45473;-59
2023/01/27 03:46:18;;;;;;;;;3.25;3.25;;;;;-146.44;100.00;58906.56;5074166;27;45559;-60
2023/01/27 03:48:51;;;;;;;;;1.00;1.00;;;;;-146.44;100.00;58906.56;5073664;27;45484;-59
2023/01/27 03:51:17;;;;;;;;;3.00;2.00;;;;;-146.44;100.00;58906.56;5073857;27;46056;-59
2023/01/27 03:53:43;;;;;;;;;3.50;3.50;;;;;-146.44;100.00;58906.56;5073702;27;45496;-59
2023/01/27 03:56:08;;;;;;;;;2.00;2.00;;;;;-146.44;100.00;58906.56;5074216;27;45481;-59
2023/01/27 03:58:36;;;;;;;;;2.50;2.50;;;;;-146.44;100.00;58906.56;5073885;27;45492;-58
2023/01/27 04:01:10;;;;;;;;;3.50;2.00;;;;;-146.44;100.00;58906.56;5073771;27;45507;-59
2023/01/27 04:09:11;;;;;;;;;7.50;5.25;;;;;-146.44;100.00;58906.56;5065671;27;45566;-59
2023/01/27 04:11:55;;;;;;;;;5.50;2.00;;;;;-146.44;100.00;58906.56;5067756;27;45422;-59
2023/01/27 04:14:32;;;;;;;;;5.75;4.00;;;;;-146.44;100.00;58906.56;5062336;27;45484;-58
2023/01/27 04:17:00;;;;;;;;;6.25;2.75;;;;;-146.44;100.00;58906.56;5067367;27;45481;-59
2023/01/27 04:19:26;;;;;;;;;4.25;3.00;;;;;-146.44;100.00;58906.56;5057704;28;45567;-60
2023/01/27 04:21:52;;;;;;;;;3.00;2.00;;;;;-146.44;100.00;58906.56;5073421;27;46069;-59
2023/01/27 04:24:21;;;;;;;;;2.50;2.50;;;;;-146.44;100.00;58906.56;5073707;27;45483;-59
2023/01/27 04:26:49;;;;;;;;;1.25;1.25;;;;;-146.44;100.00;58906.56;5073494;27;45509;-59
2023/01/27 04:29:15;;;;;;;;;4.50;2.75;;;;;-146.44;100.00;58906.56;5071981;27;45610;-59
2023/01/27 04:31:41;;;;;;;;;5.00;5.00;;;;;-146.44;100.00;58906.56;5073403;27;46368;-59
2023/01/27 04:34:06;;;;;;;;;4.50;4.50;;;;;-146.44;100.00;58906.56;5072708;27;45466;-59
2023/01/27 04:36:32;;;;;;;;;5.25;5.00;;;;;-146.44;100.00;58906.56;5073481;28;45489;-59
2023/01/27 04:38:57;;;;;;;;;5.00;3.00;;;;;-146.44;100.00;58906.56;5073398;27;45632;-59
2023/01/27 04:41:23;;;;;;;;;2.00;2.00;;;;;-146.44;100.00;58906.56;5073303;27;45539;-59
2023/01/27 04:43:48;;;;;;;;;7.25;3.00;;;;;-146.44;100.00;58906.56;5073543;27;45390;-59
2023/01/27 04:46:13;;;;;;;;;1.25;1.25;;;;;-146.44;100.00;58906.56;5073516;27;45943;-59
2023/01/27 04:48:38;;;;;;;;;1.00;0.00;;;;;-146.44;100.00;58906.56;5073448;27;45650;-59
2023/01/27 04:51:04;;;;;;;;;2.00;2.00;;;;;-146.44;100.00;58906.56;5073323;27;47751;-59
2023/01/27 04:53:29;;;;;;;;;3.00;2.00;;;;;-146.44;100.00;58906.56;5073123;27;46263;-59
2023/01/27 04:56:05;;;;;;;;;2.50;2.50;;;;;-146.44;100.00;58906.56;5073438;27;45871;-58
2023/01/27 04:58:31;;;;;;;;;6.75;4.00;;;;;-146.44;100.00;58906.56;5072829;27;45431;-58
2023/01/27 05:00:56;;;;;;;;;1.75;1.75;;;;;-146.44;100.00;58906.56;5073794;27;45491;-59
2023/01/27 05:03:21;;;;;;;;;3.00;3.00;;;;;-146.44;100.00;58906.56;5069233;28;45543;-59
2023/01/27 05:05:47;;;;;;;;;2.00;2.00;;;;;-146.44;100.00;58906.56;5075945;27;45558;-59
2023/01/27 05:08:12;;;;;;;;;3.00;3.00;;;;;-146.44;100.00;58906.56;5076627;27;45531;-60
2023/01/27 05:10:38;;;;;;;;;5.50;5.50;;;;;-146.44;100.00;58906.56;5075501;27;51500;-59
2023/01/27 05:13:03;;;;;;;;;2.00;2.00;;;;;-146.44;100.00;58906.56;5076388;27;47447;-59
2023/01/27 05:15:29;;;;;;;;;2.75;2.00;;;;;-146.44;100.00;58906.56;5076414;27;45559;-59
2023/01/27 05:17:54;;;;;;;;;3.00;3.00;;;;;-146.44;100.00;58906.56;5076610;27;45437;-59
2023/01/27 05:20:20;;;;;;;;;3.00;3.00;;;;;-146.44;100.00;58906.56;5076300;27;46185;-60
2023/01/27 05:22:45;;;;;;;;;4.50;3.50;;;;;-146.44;100.00;58906.56;5073259;27;45546;-59
2023/01/27 05:25:11;;;;;;;;;3.00;3.00;;;;;-146.44;100.00;58906.56;5076372;27;45511;-59
2023/01/27 05:27:37;;;;;;;;;2.50;2.50;;;;;-146.44;100.00;58906.56;5075228;27;45582;-59
2023/01/27 05:30:02;;;;;;;;;3.00;3.00;;;;;-146.44;100.00;58906.56;5075986;27;45517;-59
2023/01/27 05:32:28;;;;;;;;;4.25;2.00;;;;;-146.44;100.00;58906.56;5075498;27;45521;-60
2023/01/27 05:34:53;;;;;;;;;2.50;2.50;;;;;-146.44;100.00;58906.56;5076276;27;45547;-59
2023/01/27 05:37:18;;;;;;;;;2.50;2.50;;;;;-146.44;100.00;58906.56;5076181;27;47144;-59
2023/01/27 05:39:44;;;;;;;;;5.75;5.75;;;;;-146.44;100.00;58906.56;5076045;27;45497;-60
2023/01/27 05:42:09;;;;;;;;;3.00;3.00;;;;;-146.44;100.00;58906.56;5076361;27;45480;-58
2023/01/27 05:44:34;;;;;;;;;1.00;1.00;;;;;-146.44;100.00;58906.56;5076066;27;45529;-59
2023/01/27 05:47:00;;;;;;;;;1.50;1.50;;;;;-146.44;100.00;58906.56;5076140;27;45723;-59
2023/01/27 05:49:26;;;;;;;;;3.00;3.00;;;;;-146.44;100.00;58906.56;5075902;27;45525;-59
2023/01/27 05:51:51;;;;;;;;;3.00;3.00;;;;;-146.44;100.00;58906.56;5075615;27;45554;-60
2023/01/27 05:54:16;;;;;;;;;3.50;2.50;;;;;-146.44;100.00;58906.56;5076021;27;45492;-59
2023/01/27 05:56:42;;;;;;;;;5.50;5.50;;;;;-146.44;100.00;58906.56;5075658;27;45463;-59
2023/01/27 05:59:09;;;;;;;;;4.50;4.50;;;;;-146.44;100.00;58906.56;5075239;27;50367;-58
2023/01/27 06:01:36;;;;;;;;;5.00;5.00;;;;;-146.44;100.00;58906.56;5074416;27;45382;-59
2023/01/27 06:04:02;;;;;;;;;4.00;4.00;;;;;-146.44;100.00;58906.56;5075073;27;45474;-59
2023/01/27 06:06:29;;;;;;;;;2.50;2.50;;;;;-146.44;100.00;58906.56;5075490;27;45642;-59
2023/01/27 06:08:54;;;;;;;;;4.75;2.00;;;;;-146.44;100.00;58906.56;5075262;28;45513;-60
2023/01/27 06:11:22;;;;;;;;;3.00;3.00;;;;;-146.44;100.00;58906.56;5075482;27;45493;-59
2023/01/27 06:13:48;;;;;;;;;2.00;2.00;;;;;-146.44;100.00;58906.56;5075427;27;45568;-60
2023/01/27 06:16:16;;;;;;;;;6.50;3.00;;;;;-146.44;100.00;58906.56;5059712;28;45617;-59
2023/01/27 06:18:42;;;;;;;;;5.50;5.50;;;;;-146.44;100.00;58906.56;5075339;27;46079;-60
2023/01/27 06:21:10;;;;;;;;;7.00;3.00;;;;;-146.44;100.00;58906.56;5075245;27;45465;-60
2023/01/27 06:23:35;;;;;;;;;1.75;1.75;;;;;-146.44;100.00;58906.56;5075092;27;45600;-59
2023/01/27 06:26:02;;;;;;;;;5.25;4.50;;;;;-146.44;100.00;58906.56;5074209;27;45430;-59
2023/01/27 06:28:28;;;;;;;;;6.00;3.50;;;;;-146.44;100.00;58906.56;5075523;27;46064;-59
2023/01/27 06:30:53;;;;;;;;;2.50;2.50;;;;;-146.44;100.00;58906.56;5074976;27;46032;-59
2023/01/27 06:33:19;;;;;;;;;3.50;3.00;;;;;-146.44;100.00;58906.56;5075303;27;45529;-58
2023/01/27 06:35:44;;;;;;;;;2.00;2.00;;;;;-146.44;100.00;58906.56;5075146;27;45488;-58
2023/01/27 06:38:13;;;;;;;;;3.00;3.00;;;;;-146.44;100.00;58906.56;5075015;27;45488;-58
2023/01/27 06:40:38;;;;;;;;;3.50;3.50;;;;;-146.44;100.00;58906.56;5075224;27;45487;-59
2023/01/27 06:43:10;;;;;;;;;2.00;2.00;;;;;-146.44;100.00;58906.56;5074897;27;45374;-58
2023/01/27 06:45:35;;;;;;;;;2.75;2.75;;;;;-146.44;100.00;58906.56;5075383;27;45529;-59
2023/01/27 06:48:01;;;;;;;;;1.50;1.50;;;;;-146.44;100.00;58906.56;5074311;27;49611;-58
2023/01/27 06:50:28;;;;;;;;;1.75;1.75;;;;;-146.44;100.00;58906.56;5073063;27;45597;-59
2023/01/27 06:53:01;;;;;;;;;1.00;1.00;;;;;-146.44;100.00;58906.56;5059486;27;45537;-59
2023/01/27 06:55:27;;;;;;;;;4.75;2.00;;;;;-146.44;100.00;58906.56;5062030;28;45498;-59
2023/01/27 06:57:53;;;;;;;;;3.00;3.00;;;;;-146.44;100.00;58906.56;5073837;27;46239;-59
2023/01/27 07:00:18;;;;;;;;;1.25;1.25;;;;;-146.44;100.00;58906.56;5074567;27;45488;-59
2023/01/27 07:02:44;;;;;;;;;2.75;2.75;;;;;-146.44;100.00;58906.56;5074850;27;45522;-58
2023/01/27 07:05:10;;;;;;;;;4.50;4.50;;;;;-146.44;100.00;58906.56;5070956;27;45545;-58
2023/01/27 07:07:36;;;;;;;;;2.25;2.00;;;;;-146.44;100.00;58906.56;5074563;27;45444;-59
2023/01/27 07:10:02;;;;;;;;;3.00;1.00;;;;;-146.44;100.00;58906.56;5066840;27;45555;-54
2023/01/27 07:12:28;;;;;;;;;2.00;2.00;;;;;-146.44;100.00;58906.56;5057339;27;45540;-54
2023/01/27 07:14:53;;;;;;;;;6.25;5.00;;;;;-146.44;100.00;58906.56;5064965;27;45574;-56
2023/01/27 07:17:18;;;;;;;;;3.00;3.00;;;;;-146.44;100.00;58906.56;5071687;27;49170;-55
2023/01/27 07:19:44;;;;;;;;;2.25;2.25;;;;;-146.44;100.00;58906.56;5072849;27;45507;-56
2023/01/27 07:22:09;;;;;;;;;5.00;4.50;;;;;-146.44;100.00;58906.56;5074468;27;45772;-56
2023/01/27 07:24:34;;;;;;;;;3.00;3.00;;;;;-146.44;100.00;58906.56;5068501;27;45660;-56
2023/01/27 07:27:00;;;;;;;;;7.00;5.00;;;;;-146.44;100.00;58906.56;5064896;27;45594;-56
2023/01/27 07:29:26;;;;;;;;;6.00;5.25;;;;;-146.44;100.00;58906.56;5072748;27;45506;-60
2023/01/27 07:31:51;;;;;;;;;5.75;5.75;;;;;-146.44;100.00;58906.56;5073242;27;45469;-58
2023/01/27 07:34:17;;;;;;;;;6.00;6.00;;;;;-146.44;100.00;58906.56;5074102;27;45663;-58
2023/01/27 07:36:43;;;;;;;;;6.00;5.00;;;;;-146.44;100.00;58906.56;5074101;27;50850;-58
2023/01/27 07:39:08;;;;;;;;;2.50;2.50;;;;;-146.44;100.00;58906.56;5070576;28;45513;-58
2023/01/27 07:41:34;;;;;;;;;6.75;3.00;;;;;-146.44;100.00;58906.56;5062658;27;45544;-58
2023/01/27 07:43:59;;;;;;;;;4.75;4.75;;;;;-146.44;100.00;58906.56;5071366;27;45497;-57
2023/01/27 07:46:25;;;;;;;;;5.75;5.00;;;;;-146.44;100.00;58906.56;5073758;27;46136;-57
2023/01/27 07:48:50;;;;;;;;;6.25;5.25;;;;;-146.44;100.00;58906.56;5073829;27;45813;-56
2023/01/27 07:51:16;;;;;;;;;3.50;3.50;;;;;-146.44;100.00;58906.56;5074216;27;45596;-57
2023/01/27 07:53:41;;;;;;;;;7.00;5.50;;;;;-146.44;100.00;58906.56;5074232;27;45612;-57
2023/01/27 07:56:13;;;;;;;;;5.00;5.00;;;;;-146.44;100.00;58906.56;5072443;27;45541;-57
2023/01/27 07:58:38;;;;;;;;;5.50;5.50;;;;;-146.44;100.00;58906.56;5073899;27;45495;-57
2023/01/27 08:01:05;;;;;;;;;7.00;7.00;;;;;-146.44;100.00;58906.56;5073595;27;45735;-57
2023/01/27 08:03:31;;;;;;;;;6.75;5.25;;;;;-146.44;100.00;58906.56;5073828;27;45588;-58
2023/01/27 08:05:56;;;;;;;;;3.50;3.50;;;;;-146.44;100.00;58906.56;5073149;27;46194;-58
2023/01/27 08:08:21;;;;;;;;;6.25;6.25;;;;;-146.44;100.00;58906.56;5073655;28;45752;-58
2023/01/27 08:10:48;;;;;;;;;5.50;5.50;;;;;-146.44;100.00;58906.56;5073503;27;45522;-58
2023/01/27 08:13:14;;;;;;;;;5.50;5.50;;;;;-146.44;100.00;58906.56;5073604;27;45548;-58
2023/01/27 08:15:40;;;;;;;;;7.00;5.75;;;;;-146.44;100.00;58906.56;5057454;28;45645;-58
2023/01/27 08:18:05;;;;;;;;;4.00;4.00;;;;;-146.44;100.00;58906.56;5073572;27;45531;-58
2023/01/27 08:20:31;;;;;;;;;11.00;7.75;;;;;-146.44;100.00;58906.56;5072777;27;45502;-58
2023/01/27 08:22:56;;;;;;;;;8.25;5.25;;;;;-146.44;100.00;58906.56;5073472;27;45526;-58
2023/01/27 08:25:22;;;;;;;;;10.00;6.00;;;;;-146.44;100.00;58906.56;5073333;27;46015;-58
2023/01/27 08:27:52;;;;;;;;;7.00;6.25;;;;;-146.44;100.00;58906.56;5073238;27;45528;-58
2023/01/27 08:30:18;;;;;;;;;7.25;7.00;;;;;-146.44;100.00;58906.56;5073282;27;45811;-58
2023/01/27 08:32:44;;;;;;;;;6.50;5.25;;;;;-146.44;100.00;58906.56;5072673;27;45568;-58
2023/01/27 08:35:09;;;;;;;;;7.50;6.50;;;;;-146.44;100.00;58906.56;5074327;27;46591;-58
2023/01/27 08:37:35;;;;;;;;;7.00;7.00;;;;;-146.44;100.00;58906.56;5076983;27;45526;-58
2023/01/27 08:40:00;;;;;;;;;11.75;6.75;;;;;-146.44;100.00;58906.56;5077040;27;45894;-58
2023/01/27 08:42:26;;;;;;;;;10.50;8.50;;;;;-146.44;100.00;58906.56;5077050;27;45649;-58
2023/01/27 08:44:51;;;;;;;;;6.00;6.00;;;;;-146.44;100.00;58906.56;5076927;27;46188;-57
2023/01/27 08:47:16;;;;;;;;;5.25;3.50;;;;;-146.44;100.00;58906.56;5076771;27;45538;-58
2023/01/27 08:49:42;;;;;;;;;9.50;8.75;;;;;-146.44;100.00;58906.56;5076648;27;45505;-57
2023/01/27 08:52:07;;;;;;;;;11.00;8.75;;;;;-146.44;100.00;58906.56;5075905;27;45493;-58
2023/01/27 08:54:32;;;;;;;;;9.75;7.25;;;;;-146.44;100.00;58906.56;5076567;27;45534;-58
2023/01/27 08:56:58;;;;;;;;;7.00;6.25;;;;;-146.44;100.00;58906.56;5076710;27;45543;-58
2023/01/27 08:59:23;;;;;;;;;7.75;7.75;;;;;-146.44;100.00;58906.56;5076692;27;45433;-58
2023/01/27 09:01:48;;;;;;;;;9.50;8.75;;;;;-146.44;100.00;58906.56;5076667;27;45452;-58
2023/01/27 09:04:13;;;;;;;;;8.00;7.00;;;;;-146.44;100.00;58906.56;5076141;27;50174;-58
2023/01/27 09:06:39;;;;;;;;;11.25;9.75;;;;;-146.44;100.00;58906.56;5076200;27;45571;-58
2023/01/27 09:09:07;;;;;;;;;10.25;9.00;;;;;-146.44;100.00;58906.56;5076396;27;45515;-58
2023/01/27 09:11:38;;;;;;;;;23.25;15.75;;;;;-146.44;100.00;58906.56;5074930;27;46091;-58
2023/01/27 09:14:03;;;;;;;;;14.50;12.00;;;;;-146.44;100.00;58906.56;5074170;27;45489;-58
2023/01/27 09:16:30;;;;;;;;;9.00;9.00;;;;;-146.44;100.00;58906.56;5064254;27;45473;-58
2023/01/27 09:18:57;;;;;;;;;8.00;8.00;;;;;-146.44;100.00;58906.56;5076223;27;45518;-58
2023/01/27 09:21:22;;;;;;;;;9.00;9.00;;;;;-146.44;100.00;58906.56;5075441;27;45454;-58
2023/01/27 09:23:48;;;;;;;;;7.75;7.75;;;;;-146.44;100.00;58906.56;5076216;27;45509;-58
2023/01/27 09:26:13;;;;;;;;;4.00;4.00;;;;;-146.44;100.00;58906.56;5076158;27;45500;-58
2023/01/27 09:28:39;;;;;;;;;9.50;9.50;;;;;-146.44;100.00;58906.56;5076416;27;45489;-58
2023/01/27 09:31:04;;;;;;;;;9.25;6.75;;;;;-146.44;100.00;58906.56;5074874;27;45567;-58
2023/01/27 09:33:30;;;;;;;;;9.50;7.50;;;;;-146.44;100.00;58906.56;5076089;27;47164;-58
2023/01/27 09:35:58;;;;;;;;;8.50;6.75;;;;;-146.44;100.00;58906.56;5075873;27;45478;-57
2023/01/27 09:38:28;;;;;;;;;6.50;6.50;;;;;-146.44;100.00;58906.56;5076321;27;45569;-58
2023/01/27 09:41:06;;;;;;;;;11.75;10.75;;;;;-146.44;100.00;58906.56;5075326;27;45505;-58
2023/01/27 09:43:40;;;;;;;;;11.75;11.00;;;;;-146.44;100.00;58906.56;5063556;27;45506;-61
2023/01/27 09:46:47;;;;;;;;;5.75;5.50;;;;;-146.44;100.00;58906.56;5075650;27;45482;-57
2023/01/27 09:49:25;;;;;;;;;7.75;7.75;;;;;-146.44;100.00;58906.56;5067278;28;45496;-58
2023/01/27 09:52:12;;;;;;;;;10.25;8.00;;;;;-146.44;100.00;58906.56;5075661;27;45528;-58
2023/01/27 09:54:41;;;;;;;;;10.00;10.00;;;;;-146.44;100.00;58906.56;5073584;27;46334;-58
2023/01/27 09:57:34;;;;;;;;;10.25;9.50;;;;;-146.44;100.00;58906.56;5061719;27;45559;-58
2023/01/27 10:00:05;;;;;;;;;10.00;7.25;;;;;-146.44;100.00;58906.56;5075511;27;45467;-58
2023/01/27 10:02:39;;;;;;;;;7.75;7.25;;;;;-146.44;100.00;58906.56;5075635;27;45494;-58
2023/01/27 10:05:31;;;;;;;;;9.75;8.25;;;;;-146.44;100.00;58906.56;5075283;27;45532;-58
2023/01/27 10:08:44;;;;;;;;;8.75;6.25;;;;;-146.44;100.00;58906.56;5072717;27;45520;-58
2023/01/27 10:11:43;;;;;;;;;7.25;6.00;;;;;-146.44;100.00;58906.56;5022722;28;45659;-58
2023/01/27 10:14:33;;;;;;;;;11.00;10.75;;;;;-146.44;100.00;58906.56;5057766;28;45571;-58
2023/01/27 10:17:07;;;;;;;;;8.25;8.25;;;;;-146.44;100.00;58906.56;5067028;27;46331;-58
2023/01/27 10:19:41;;;;;;;;;5.25;5.25;;;;;-146.44;100.00;58906.56;5074891;27;46079;-58
2023/01/27 10:22:22;;;;;;;;;8.00;8.00;;;;;-146.44;100.00;58906.56;5075540;27;45595;-58
2023/01/27 10:24:58;;;;;;;;;10.25;8.25;;;;;-146.44;100.00;58906.56;5073772;27;45497;-58
2023/01/27 10:27:26;;;;;;;;;7.75;6.25;;;;;-146.44;100.00;58906.56;5074781;27;46027;-58
2023/01/27 10:30:02;;;;;;;;;6.25;6.25;;;;;-146.44;100.00;58906.56;5075073;27;45628;-57
2023/01/27 10:33:03;;;;;;;;;8.50;7.25;;;;;-146.44;100.00;58906.56;5074007;27;45473;-58
2023/01/27 10:35:55;;;;;;;;;9.00;7.75;;;;;-146.44;100.00;58906.56;5061159;27;46102;-58
2023/01/27 10:38:34;;;;;;;;;15.50;11.00;;;;;-146.44;100.00;58906.56;5073377;27;46055;-58
2023/01/27 10:41:15;;;;;;;;;8.25;8.25;;;;;-146.44;100.00;58906.56;5075166;27;45449;-58
2023/01/27 10:44:07;;;;;;;;;9.00;9.00;;;;;-146.44;100.00;58906.56;5062672;27;45512;-58
2023/01/27 10:46:32;;;;;;;;;8.75;7.25;;;;;-146.44;100.00;58906.56;5074906;27;45515;-58
2023/01/27 10:49:12;;;;;;;;;10.00;10.00;;;;;-146.44;100.00;58906.56;5074562;27;45504;-57
2023/01/27 10:51:42;;;;;;;;;8.00;8.00;;;;;-146.44;100.00;58906.56;5074635;27;45482;-58
2023/01/27 10:54:18;;;;;;;;;10.25;10.25;;;;;-146.44;100.00;58906.56;5073698;27;45501;-57
2023/01/27 10:56:53;;;;;;;;;8.50;8.50;;;;;-146.44;100.00;58906.56;5073345;27;45429;-57
2023/01/27 10:59:28;;;;;;;;;15.00;11.00;;;;;-146.44;100.00;58906.56;5073464;27;46336;-57
2023/01/27 11:02:14;;;;;;;;;11.25;10.50;;;;;-146.44;100.00;58906.56;5072186;27;45543;-57
2023/01/27 11:04:47;;;;;;;;;10.00;7.25;;;;;-146.44;100.00;58906.56;5074790;27;45568;-58
2023/01/27 11:07:19;;;;;;;;;11.25;8.25;;;;;-146.44;100.00;58906.56;5074420;27;45516;-58
2023/01/27 11:09:55;;;;;;;;;11.75;11.75;;;;;-146.44;100.00;58906.56;5074079;27;45594;-58
2023/01/27 11:12:31;;;;;;;;;10.75;10.75;;;;;-146.44;100.00;58906.56;5074399;27;45566;-58
2023/01/27 11:14:58;;;;;;;;;9.50;9.50;;;;;-146.44;100.00;58906.56;5065088;27;45525;-57
2023/01/27 11:18:14;;;;;;;;;16.75;15.25;;;;;-146.44;100.00;58906.56;5069928;28;45463;-57
2023/01/27 11:20:44;;;;;;;;;12.50;10.50;;;;;-146.44;100.00;58906.56;5051228;28;45458;-57
2023/01/27 11:23:14;;;;;;;;;11.25;7.00;;;;;-146.44;100.00;58906.56;5033834;28;45523;-57
2023/01/27 11:25:57;;;;;;;;;8.50;8.50;;;;;-146.44;100.00;58906.56;5063284;28;45613;-58
2023/01/27 11:28:44;;;;;;;;;10.00;8.50;;;;;-146.44;100.00;58906.56;5061859;27;45428;-58
2023/01/27 11:31:40;;;;;;;;;7.50;6.00;;;;;-146.44;100.00;58906.56;5073505;27;46440;-59
2023/01/27 11:34:25;;;;;;;;;9.50;7.50;;;;;-146.44;100.00;58906.56;5074015;27;45482;-58
2023/01/27 11:36:51;;;;;;;;;10.25;10.25;;;;;-146.44;100.00;58906.56;5061583;28;45659;-55
2023/01/27 11:39:18;;;;;;;;;14.50;12.00;;;;;-146.44;100.00;58906.56;5074086;27;45664;-59
2023/01/27 11:41:57;;;;;;;;;10.00;8.50;;;;;-146.44;100.00;58906.56;5073557;27;45518;-57